Latest Weather Observations for Sydney Airport

IDN60901

Issued at 11:31 am EDT Wednesday 12 December 2018 (issued every 10 minutes, with the page automatically refreshed every 10 minutes)

About weather observations | Map of Sydney area stations | Latest observations for Sydney area | Other Formats
Station Details ID: 066037 Name: SYDNEY AIRPORT AMO Lat: -33.95 Lon: 151.17 Height: 6.0 m
Data from the previous 72 hours. | See also: Recent months at Sydney Airport
Date/Time
EDT
Temp
°C
App
Temp
°C
Dew
Point
°C
Rel
Hum
%
Delta-T
°C
Wind Press
QNH
hPa
Press
MSL
hPa
Rain since
9am
mm
Dir  Spd
km/h
Gust
km/h
Spd
kts
Gust
kts
12/11:00am 22.1 20.2 16.6 71 3.3 NE 22 30 12 16 1015.7 1015.7 0.0
12/10:30am 21.1 19.8 17.3 79 2.3 ENE 20 26 11 14 1016.0 1016.0 0.0
12/10:00am 20.4 18.1 17.6 84 1.7 ENE 26 37 14 20 1016.1 1016.1 0.0
12/09:56am 20.7 19.6 17.3 81 2.1 E 19 32 10 17 1016.1 1016.1 0.0
12/09:30am 21.7 21.2 17.7 78 2.5 E 17 28 9 15 1016.2 1016.2 0.0
12/09:00am 21.8 20.6 17.0 74 2.9 E 19 26 10 14 1016.6 1016.6 0.0
12/08:30am 21.6 21.4 16.8 74 2.9 ESE 13 19 7 10 1016.6 1016.6 0.0
12/08:00am 21.2 21.0 16.8 76 2.7 ESE 13 17 7 9 1016.6 1016.6 0.0
12/07:30am 20.6 21.5 17.6 83 1.8 SSE 9 11 5 6 1016.4 1016.4 0.0
12/07:00am 20.4 21.5 17.0 81 2.1 S 7 9 4 5 1016.2 1016.2 0.0
12/06:30am 20.0 20.8 17.4 85 1.6 S 9 11 5 6 1016.0 1016.0 0.0
12/06:00am 19.7 20.1 17.3 86 1.5 S 11 11 6 6 1016.0 1016.0 0.0
12/05:30am 19.6 20.0 17.2 86 1.5 SSE 11 13 6 7 1015.8 1015.8 0.0
12/05:00am 19.4 19.6 16.8 85 1.6 S 11 13 6 7 1015.6 1015.6 0.0
12/04:30am 20.0 20.0 17.2 84 1.7 SSW 13 15 7 8 1015.7 1015.7 0.0
12/04:00am 19.5 19.6 16.5 83 1.8 S 11 13 6 7 1015.9 1015.9 0.0
12/03:30am 19.7 19.8 16.5 82 1.9 S 11 13 6 7 1016.1 1016.1 0.0
12/03:00am 19.9 19.6 16.5 81 2.0 S 13 13 7 7 1016.4 1016.4 0.0
12/02:30am 20.4 20.8 16.2 77 2.5 SSE 9 11 5 6 1016.5 1016.5 0.0
12/02:00am 20.4 20.7 16.0 76 2.6 ESE 9 11 5 6 1016.6 1016.6 0.0
12/01:30am 20.5 20.8 15.9 75 2.7 SE 9 11 5 6 1017.0 1017.0 0.0
12/01:00am 20.3 20.2 16.1 77 2.5 SE 11 13 6 7 1017.1 1017.1 0.0
12/12:30am 20.4 20.3 16.0 76 2.6 SE 11 13 6 7 1017.7 1017.7 0.0
12/12:00am 20.4 20.6 15.8 75 2.7 E 9 11 5 6 1017.8 1017.8 0.0
 
Date/Time
EDT
Temp
°C
App
Temp
°C
Dew
Point
°C
Rel
Hum
%
Delta-T
°C
Wind Press
QNH
hPa
Press
MSL
hPa
Rain since
9am
mm
Dir  Spd
km/h
Gust
km/h
Spd
kts
Gust
kts
11/11:30pm 20.7 20.6 15.9 74 2.9 ESE 11 11 6 6 1018.1 1018.1 0.0
11/11:00pm 20.7 20.9 15.7 73 3.0 E 9 11 5 6 1018.5 1018.5 0.0
11/10:30pm 20.7 20.1 15.7 73 3.0 E 13 15 7 8 1018.0 1018.0 0.0
11/10:00pm 20.7 20.1 15.7 73 3.0 ESE 13 17 7 9 1017.8 1017.8 0.0
11/09:30pm 20.4 19.9 16.0 76 2.6 SE 13 17 7 9 1017.8 1017.8 0.0
11/09:00pm 20.2 19.6 15.6 75 2.7 SSE 13 15 7 8 1018.3 1018.3 0.0
11/08:30pm 20.7 20.2 15.9 74 2.9 SSE 13 17 7 9 1018.2 1018.2 0.0
11/08:00pm 20.5 19.8 15.5 73 3.0 SE 13 15 7 8 1018.0 1018.0 0.0
11/07:30pm 21.0 20.9 16.0 73 3.0 SE 11 15 6 8 1017.8 1017.8 0.0
11/07:00pm 20.9 20.5 15.2 70 3.4 SE 11 13 6 7 1017.6 1017.6 0.0
11/06:30pm 21.4 20.6 15.0 67 3.8 SE 13 17 7 9 1017.4 1017.4 0.0
11/06:00pm 20.9 19.8 14.3 66 3.8 SSE 13 17 7 9 1017.5 1017.5 0.0
11/05:30pm 21.2 19.8 14.6 66 3.9 SE 15 19 8 10 1017.4 1017.4 0.0
11/05:00pm 21.1 20.3 15.2 69 3.5 SE 13 17 7 9 1017.6 1017.6 0.0
11/04:30pm 21.2 20.1 15.3 69 3.5 SE 15 19 8 10 1017.7 1017.7 0.0
11/04:00pm 21.2 20.1 15.3 69 3.5 SE 15 19 8 10 1018.1 1018.1 0.0
11/03:30pm 21.3 19.9 14.5 65 4.0 ESE 15 17 8 9 1018.1 1018.1 0.0
11/03:00pm 20.9 20.3 15.7 72 3.1 S 13 17 7 9 1018.5 1018.5 0.0
11/02:30pm 20.8 19.8 15.6 72 3.1 S 15 19 8 10 1018.8 1018.8 0.0
11/02:00pm 21.1 20.0 16.3 74 2.9 S 17 20 9 11 1018.7 1018.7 0.0
11/01:30pm 20.8 19.1 15.8 73 3.0 S 19 26 10 14 1019.1 1019.1 0.0
11/01:00pm 21.2 19.6 16.0 72 3.1 S 19 24 10 13 1019.3 1019.3 0.0
11/12:30pm 20.9 18.9 15.4 71 3.3 S 20 28 11 15 1019.3 1019.3 0.0
11/12:00pm 21.5 19.7 16.0 71 3.3 S 20 30 11 16 1019.4 1019.4 0.0
11/11:30am 21.4 19.2 15.0 67 3.8 S 20 24 11 13 1019.4 1019.4 0.0
11/11:00am 21.7 19.6 15.3 67 3.8 S 20 30 11 16 1019.4 1019.4 0.0
11/10:30am 21.9 20.1 15.5 67 3.8 S 19 26 10 14 1019.6 1019.6 0.0
11/10:00am 21.7 20.2 15.3 67 3.8 S 17 22 9 12 1019.7 1019.7 0.0
11/09:30am 21.7 20.0 15.8 69 3.5 S 19 24 10 13 1019.5 1019.5 0.0
11/09:00am 21.1 19.2 15.2 69 3.5 S 19 20 10 11 1019.5 1019.5 0.0
11/08:30am 20.8 19.3 15.4 71 3.2 SSE 17 22 9 12 1019.5 1019.5 0.0
11/08:00am 20.6 18.8 15.4 72 3.1 SSE 19 22 10 12 1019.1 1019.1 0.0
11/07:30am 20.4 19.1 15.8 75 2.7 S 17 22 9 12 1019.0 1019.0 0.0
11/07:00am 20.6 18.8 15.4 72 3.1 SSE 19 22 10 12 1018.5 1018.5 0.0
11/06:30am 20.4 19.0 15.6 74 2.9 S 17 20 9 11 1018.3 1018.3 0.0
11/06:00am 20.2 18.5 15.8 76 2.6 SSE 19 26 10 14 1018.0 1018.0 0.0
11/05:30am 20.2 18.3 15.2 73 2.9 SSE 19 26 10 14 1017.6 1017.6 0.0
11/05:00am 20.2 18.2 15.6 75 2.7 SSE 20 28 11 15 1017.6 1017.6 0.0
11/04:30am 20.6 18.2 16.4 77 2.5 SSE 24 30 13 16 1017.0 1017.0 0.0
11/04:00am 20.4 18.3 16.2 77 2.5 SSE 22 28 12 15 1017.2 1017.2 0.0
11/03:30am 20.6 19.8 17.0 80 2.2 S 17 24 9 13 1017.5 1017.5 0.0
11/03:00am 20.6 19.8 17.2 81 2.1 S 17 22 9 12 1017.6 1017.6 0.0
11/02:30am 20.6 19.3 16.8 79 2.3 SSE 19 22 10 12 1017.5 1017.5 0.0
11/02:00am 20.6 19.5 17.2 81 2.1 S 19 24 10 13 1017.9 1017.9 0.0
11/01:30am 20.6 19.9 17.4 82 2.0 S 17 24 9 13 1018.1 1018.1 0.0
11/01:00am 20.8 19.8 18.0 84 1.7 S 20 26 11 14 1018.0 1018.0 0.0
11/12:30am 20.7 19.9 17.9 84 1.7 SSE 19 22 10 12 1018.1 1018.1 0.0
11/12:00am 20.9 20.0 18.3 85 1.6 S 20 26 11 14 1018.3 1018.3 0.0
 
Date/Time
EDT
Temp
°C
App
Temp
°C
Dew
Point
°C
Rel
Hum
%
Delta-T
°C
Wind Press
QNH
hPa
Press
MSL
hPa
Rain since
9am
mm
Dir  Spd
km/h
Gust
km/h
Spd
kts
Gust
kts
10/11:30pm 20.9 19.3 18.3 85 1.6 SSE 24 30 13 16 1018.1 1018.1 0.0
10/11:00pm 20.9 19.2 18.1 84 1.7 S 24 32 13 17 1018.6 1018.6 0.0
10/10:30pm 21.1 18.8 18.5 85 1.6 S 28 39 15 21 1018.6 1018.6 0.0
10/10:00pm 21.0 18.8 18.8 87 1.4 S 28 35 15 19 1018.3 1018.3 0.0
10/09:30pm 21.0 19.1 18.6 86 1.5 S 26 33 14 18 1018.1 1018.1 0.0
10/09:00pm 21.2 19.1 18.9 87 1.4 SSE 28 33 15 18 1017.2 1017.2 0.0
10/08:38pm 21.2 18.3 19.3 89 1.2 S 33 41 18 22 1017.1 1017.1 0.0
10/08:30pm 21.3 17.7 19.4 89 1.2 S 37 46 20 25 1017.0 1017.0 0.0
10/08:00pm 21.6 18.5 19.7 89 1.2 SSW 35 44 19 24 1016.5 1016.5 0.0
10/07:30pm 22.0 19.4 19.5 86 1.6 SSW 32 37 17 20 1015.9 1015.9 0.0
10/07:00pm 22.1 19.2 19.3 84 1.8 S 33 41 18 22 1015.5 1015.5 0.0
10/06:30pm 22.3 19.4 18.9 81 2.1 S 32 41 17 22 1014.8 1014.8 0.0
10/06:24pm 22.5 20.4 18.9 80 2.3 S 28 41 15 22 1014.6 1014.6 0.0
10/06:00pm 23.3 23.5 18.6 75 3.0 SSE 15 22 8 12 1014.3 1014.3 0.0
10/05:30pm 25.8 27.0 17.4 59 5.2 ENE 7 9 4 5 1013.7 1013.7 0.0
10/05:00pm 25.9 27.1 18.3 63 4.8 E 9 11 5 6 1013.6 1013.6 0.0
10/04:30pm 26.1 26.8 18.8 64 4.7 E 13 15 7 8 1013.5 1013.5 0.0
10/04:00pm 25.4 25.9 18.3 65 4.5 ENE 13 17 7 9 1013.5 1013.5 0.0
10/03:30pm 26.2 26.0 18.6 63 4.8 NNE 17 22 9 12 1013.7 1013.7 0.0
10/03:00pm 25.5 25.1 18.9 67 4.2 NNE 19 26 10 14 1014.0 1014.0 0.0
10/02:30pm 25.8 24.7 17.7 61 5.1 ENE 20 26 11 14 1013.9 1013.9 0.0
10/02:00pm 25.3 26.8 18.0 64 4.6 SE 7 11 4 6 1014.8 1014.8 0.0
10/01:30pm 26.0 26.7 17.1 58 5.5 SSE 9 15 5 8 1015.4 1015.4 0.0
10/01:00pm 27.1 28.1 16.4 52 6.6 NW 6 11 3 6 1015.3 1015.3 0.0
10/12:30pm 27.1 27.3 16.7 53 6.5 NNE 11 17 6 9 1015.3 1015.3 0.0
10/12:00pm 26.4 25.5 16.9 56 5.9 NNE 17 24 9 13 1015.2 1015.2 0.0
10/11:30am 25.6 25.6 17.3 60 5.2 NE 13 17 7 9 1015.6 1015.6 0.0
10/11:00am 25.3 24.3 16.7 59 5.3 ENE 17 22 9 12 1015.8 1015.8 0.0
10/10:30am 25.5 24.4 17.4 61 5.1 NE 19 26 10 14 1015.9 1015.9 0.0
10/10:00am 25.0 23.4 17.5 63 4.7 E 22 30 12 16 1015.7 1015.7 0.0
10/09:30am 24.0 23.2 19.3 75 3.0 ESE 22 28 12 15 1016.2 1016.2 0.0
10/09:00am 23.3 23.7 21.0 87 1.5 SSE 20 26 11 14 1016.7 1016.7 0.0
10/08:30am 22.4 21.4 19.6 84 1.8 S 24 30 13 16 1016.6 1016.6 0.0
10/08:00am 21.8 20.7 19.4 86 1.5 S 24 30 13 16 1016.7 1016.7 0.0
10/07:30am 21.7 19.8 19.3 86 1.5 S 28 32 15 17 1016.5 1016.5 0.0
10/07:00am 21.2 20.3 19.1 88 1.3 S 22 28 12 15 1015.9 1015.9 0.0
10/06:30am 21.0 20.8 18.6 86 1.5 S 17 19 9 10 1015.3 1015.3 0.0
10/06:00am 20.9 21.4 18.3 85 1.6 SSE 13 17 7 9 1014.6 1014.6 0.0
10/05:30am 20.9 22.6 18.1 84 1.7 E 6 7 3 4 1014.4 1014.4 0.0
10/05:00am 20.9 22.1 18.3 85 1.6 ENE 9 11 5 6 1014.1 1014.1 0.0
10/04:30am 20.9 22.5 18.3 85 1.6 ENE 7 11 4 6 1014.2 1014.2 0.0
10/04:00am 21.1 22.8 18.5 85 1.6 NE 7 11 4 6 1014.1 1014.1 0.0
10/03:30am 21.2 22.1 18.4 84 1.7 NE 11 15 6 8 1014.5 1014.5 0.0
10/03:00am 21.4 21.6 18.6 84 1.8 NE 15 19 8 10 1014.3 1014.3 0.0
10/02:30am 21.5 21.4 18.7 84 1.8 NE 17 22 9 12 1014.8 1014.8 0.0
10/02:00am 21.4 22.1 18.8 85 1.6 NE 13 19 7 10 1015.1 1015.1 0.0
10/01:30am 21.3 21.1 18.5 84 1.8 NE 17 20 9 11 1015.3 1015.3 0.0
10/01:00am 21.4 21.2 18.6 84 1.8 ENE 17 22 9 12 1015.7 1015.7 0.0
10/12:30am 21.5 20.9 18.5 83 1.9 ENE 19 28 10 15 1016.1 1016.1 0.0
10/12:00am 21.5 21.3 18.5 83 1.9 ENE 17 26 9 14 1016.2 1016.2 0.0
 
Date/Time
EDT
Temp
°C
App
Temp
°C
Dew
Point
°C
Rel
Hum
%
Delta-T
°C
Wind Press
QNH
hPa
Press
MSL
hPa
Rain since
9am
mm
Dir  Spd
km/h
Gust
km/h
Spd
kts
Gust
kts
09/11:30pm 21.7 20.6 18.7 83 1.9 ENE 22 33 12 18 1016.4 1016.4 0.0
09/11:00pm 21.9 20.8 18.7 82 2.0 NE 22 33 12 18 1016.6 1016.6 0.0
09/10:30pm 22.3 21.9 18.9 81 2.1 NE 19 28 10 15 1016.4 1016.4 0.0
09/10:18pm 22.8 22.3 19.2 80 2.3 ENE 20 28 11 15 1016.3 1016.3 0.0
09/10:00pm 22.3 21.3 18.9 81 2.1 NE 22 30 12 16 1016.3 1016.3 0.0
09/09:36pm 21.8 19.3 18.8 83 1.9 ENE 30 35 16 19 1016.2 1016.2 0.0
09/09:30pm 21.8 19.2 18.6 82 2.0 ENE 30 37 16 20 1016.2 1016.2 0.0
09/09:00pm 21.9 20.8 18.7 82 2.0 ENE 22 28 12 15 1016.0 1016.0 0.0
09/08:30pm 22.0 21.8 18.6 81 2.1 E 17 22 9 12 1016.2 1016.2 0.0
09/08:00pm 22.2 22.0 18.6 80 2.3 E 17 22 9 12 1016.3 1016.3 0.0
09/07:30pm 22.5 22.3 18.5 78 2.5 ENE 17 26 9 14 1015.9 1015.9 0.0
09/07:00pm 23.4 22.5 18.3 73 3.2 E 20 28 11 15 1015.4 1015.4 0.0
09/06:30pm 23.5 22.8 17.3 68 3.8 ENE 17 22 9 12 1014.9 1014.9 0.0
09/06:00pm 24.8 25.5 18.0 66 4.3 ENE 11 19 6 10 1015.2 1015.2 0.0
09/05:30pm 24.7 21.5 17.2 63 4.7 NE 30 39 16 21 1014.2 1014.2 0.0
09/05:00pm 26.4 22.8 17.2 57 5.7 NE 32 41 17 22 1014.0 1014.0 0.0
09/04:30pm 26.6 22.6 17.7 58 5.6 NE 35 43 19 23 1014.1 1014.1 0.0
09/04:00pm 27.1 22.7 16.7 53 6.5 NE 35 46 19 25 1014.4 1014.4 0.0
09/03:30pm 27.3 22.6 16.9 53 6.5 NE 37 48 20 26 1014.8 1014.8 0.0
09/03:00pm 27.4 23.4 16.7 52 6.6 NE 33 39 18 21 1015.5 1015.5 0.0
09/02:30pm 27.9 24.1 16.8 50 6.9 NE 32 39 17 21 1015.7 1015.7 0.0
09/02:00pm 26.9 23.5 15.9 51 6.7 NE 28 35 15 19 1015.9 1015.9 0.0
09/01:30pm 27.9 24.5 16.8 50 6.9 NE 30 37 16 20 1016.3 1016.3 0.0
09/01:00pm 26.8 23.1 16.1 52 6.6 NE 30 35 16 19 1016.7 1016.7 0.0
09/12:30pm 25.7 22.2 16.5 56 5.7 NE 30 41 16 22 1016.9 1016.9 0.0
09/12:00pm 25.6 22.5 16.5 57 5.6 ENE 28 33 15 18 1017.0 1017.0 0.0

Latest Capital City Observations: Canberra | Sydney | Melbourne | Brisbane | Adelaide | Perth | Hobart | Darwin

Other Formats:

Comma delimited format used in spreadsheet applications
http://www.bom.gov.au/fwo/IDN60901/IDN60901.94767.axf

JavaScript Object Notation format (JSON) in row-major order
http://www.bom.gov.au/fwo/IDN60901/IDN60901.94767.json